Terminal Aerodrome Forecast
Issued by NWS Portland, OR

Home | Current Version | Previous Version | Text Only | Print | Product List | Glossary On
Versions: 1 2 3 4 5 6 7 8 9 10 11 12 13 14 15 16
000
FTUS46 KPQR 270520
TAFEUG
TAF
KEUG 270520Z 2706/2806 30004KT P6SM SKC
     FM271000 VRB03KT P6SM SCT012
     FM271700 01005KT P6SM FEW012
     FM271900 01012KT P6SM SCT050
     FM280100 36007KT P6SM SCT100=

USA.gov is the U.S. government's official web portal to all federal, state and local government web resources and services.